sensor_id;sensor_type;location;lat;lon;timestamp;temperature;humidity
49579;DHT22;35483;50.828;3.228;2022-10-17T00:00:49;16.10;99.90
49579;DHT22;35483;50.828;3.228;2022-10-17T00:03:15;16.20;99.90
49579;DHT22;35483;50.828;3.228;2022-10-17T00:05:43;16.20;99.90
49579;DHT22;35483;50.828;3.228;2022-10-17T00:08:10;16.20;99.90
49579;DHT22;35483;50.828;3.228;2022-10-17T00:10:37;16.20;99.90
49579;DHT22;35483;50.828;3.228;2022-10-17T00:13:03;16.20;99.90
49579;DHT22;35483;50.828;3.228;2022-10-17T00:15:29;16.30;99.90
49579;DHT22;35483;50.828;3.228;2022-10-17T00:17:55;16.30;99.90
49579;DHT22;35483;50.828;3.228;2022-10-17T00:20:20;16.30;99.90
49579;DHT22;35483;50.828;3.228;2022-10-17T00:22:46;16.30;99.90
49579;DHT22;35483;50.828;3.228;2022-10-17T00:25:12;16.30;99.90
49579;DHT22;35483;50.828;3.228;2022-10-17T00:27:40;16.40;99.90
49579;DHT22;35483;50.828;3.228;2022-10-17T00:30:09;16.40;99.90
49579;DHT22;35483;50.828;3.228;2022-10-17T00:32:35;16.40;99.90
49579;DHT22;35483;50.828;3.228;2022-10-17T00:35:01;16.40;99.90
49579;DHT22;35483;50.828;3.228;2022-10-17T00:37:29;16.40;99.90
49579;DHT22;35483;50.828;3.228;2022-10-17T00:39:55;16.50;99.90
49579;DHT22;35483;50.828;3.228;2022-10-17T00:42:21;16.50;99.90
49579;DHT22;35483;50.828;3.228;2022-10-17T00:47:19;16.50;99.90
49579;DHT22;35483;50.828;3.228;2022-10-17T00:49:47;16.50;99.90
49579;DHT22;35483;50.828;3.228;2022-10-17T00:52:22;16.50;99.90
49579;DHT22;35483;50.828;3.228;2022-10-17T00:54:54;16.60;99.90
49579;DHT22;35483;50.828;3.228;2022-10-17T00:57:20;16.50;99.90
49579;DHT22;35483;50.828;3.228;2022-10-17T00:59:50;16.60;99.90
49579;DHT22;35483;50.828;3.228;2022-10-17T01:02:19;16.60;99.90
49579;DHT22;35483;50.828;3.228;2022-10-17T01:04:47;16.60;99.90
49579;DHT22;35483;50.828;3.228;2022-10-17T01:07:14;16.60;99.90
49579;DHT22;35483;50.828;3.228;2022-10-17T01:09:40;16.60;99.90
49579;DHT22;35483;50.828;3.228;2022-10-17T01:12:14;16.70;99.90
49579;DHT22;35483;50.828;3.228;2022-10-17T01:17:58;16.70;99.90
49579;DHT22;35483;50.828;3.228;2022-10-17T01:31:11;16.60;99.90
49579;DHT22;35483;50.828;3.228;2022-10-17T01:33:46;16.60;99.90
49579;DHT22;35483;50.828;3.228;2022-10-17T01:36:25;16.50;99.90
49579;DHT22;35483;50.828;3.228;2022-10-17T01:39:13;16.50;99.90
49579;DHT22;35483;50.828;3.228;2022-10-17T01:41:45;16.50;99.90
49579;DHT22;35483;50.828;3.228;2022-10-17T01:47:05;16.50;99.90
49579;DHT22;35483;50.828;3.228;2022-10-17T01:49:33;16.40;99.90
49579;DHT22;35483;50.828;3.228;2022-10-17T01:52:03;16.40;99.90
49579;DHT22;35483;50.828;3.228;2022-10-17T01:54:36;16.40;99.90
49579;DHT22;35483;50.828;3.228;2022-10-17T01:57:08;16.40;99.90
49579;DHT22;35483;50.828;3.228;2022-10-17T01:59:44;16.50;99.90
49579;DHT22;35483;50.828;3.228;2022-10-17T02:02:13;16.50;99.90
49579;DHT22;35483;50.828;3.228;2022-10-17T02:04:41;16.50;99.90
49579;DHT22;35483;50.828;3.228;2022-10-17T02:07:11;16.60;99.90
49579;DHT22;35483;50.828;3.228;2022-10-17T02:09:37;16.60;99.90
49579;DHT22;35483;50.828;3.228;2022-10-17T02:14:55;16.70;99.90
49579;DHT22;35483;50.828;3.228;2022-10-17T02:23:00;16.70;99.90
49579;DHT22;35483;50.828;3.228;2022-10-17T02:28:18;16.80;99.90
49579;DHT22;35483;50.828;3.228;2022-10-17T02:30:55;16.70;99.90
49579;DHT22;35483;50.828;3.228;2022-10-17T02:33:27;16.70;99.90
49579;DHT22;35483;50.828;3.228;2022-10-17T02:36:00;16.70;99.90
49579;DHT22;35483;50.828;3.228;2022-10-17T02:38:28;16.80;99.90
49579;DHT22;35483;50.828;3.228;2022-10-17T02:40:55;16.80;99.90
49579;DHT22;35483;50.828;3.228;2022-10-17T02:43:21;16.90;99.90
49579;DHT22;35483;50.828;3.228;2022-10-17T02:45:48;17.00;99.90
49579;DHT22;35483;50.828;3.228;2022-10-17T02:48:36;17.00;99.90
49579;DHT22;35483;50.828;3.228;2022-10-17T02:51:23;17.10;99.90
49579;DHT22;35483;50.828;3.228;2022-10-17T02:56:40;17.10;99.90
49579;DHT22;35483;50.828;3.228;2022-10-17T02:59:08;17.20;99.90
49579;DHT22;35483;50.828;3.228;2022-10-17T03:01:36;17.20;99.90
49579;DHT22;35483;50.828;3.228;2022-10-17T03:04:08;17.20;99.90
49579;DHT22;35483;50.828;3.228;2022-10-17T03:06:34;17.20;99.90
49579;DHT22;35483;50.828;3.228;2022-10-17T03:08:59;17.20;99.90
49579;DHT22;35483;50.828;3.228;2022-10-17T03:11:26;17.20;99.90
49579;DHT22;35483;50.828;3.228;2022-10-17T03:13:51;17.30;99.90
49579;DHT22;35483;50.828;3.228;2022-10-17T03:16:17;17.30;99.90
49579;DHT22;35483;50.828;3.228;2022-10-17T03:18:43;17.30;99.90
49579;DHT22;35483;50.828;3.228;2022-10-17T03:21:08;17.30;99.90
49579;DHT22;35483;50.828;3.228;2022-10-17T03:23:34;17.30;99.90
49579;DHT22;35483;50.828;3.228;2022-10-17T03:26:04;17.30;99.90
49579;DHT22;35483;50.828;3.228;2022-10-17T03:28:30;17.30;99.90
49579;DHT22;35483;50.828;3.228;2022-10-17T03:30:56;17.30;99.90
49579;DHT22;35483;50.828;3.228;2022-10-17T03:33:22;17.30;99.90
49579;DHT22;35483;50.828;3.228;2022-10-17T03:35:47;17.40;99.90
49579;DHT22;35483;50.828;3.228;2022-10-17T03:38:13;17.40;99.90
49579;DHT22;35483;50.828;3.228;2022-10-17T03:40:39;17.40;99.90
49579;DHT22;35483;50.828;3.228;2022-10-17T03:43:04;17.30;99.90
49579;DHT22;35483;50.828;3.228;2022-10-17T03:45:30;17.40;99.90
49579;DHT22;35483;50.828;3.228;2022-10-17T03:47:58;17.30;99.90
49579;DHT22;35483;50.828;3.228;2022-10-17T03:50:24;17.40;99.90
49579;DHT22;35483;50.828;3.228;2022-10-17T03:52:50;17.40;99.90
49579;DHT22;35483;50.828;3.228;2022-10-17T03:55:16;17.40;99.90
49579;DHT22;35483;50.828;3.228;2022-10-17T03:57:42;17.40;99.90
49579;DHT22;35483;50.828;3.228;2022-10-17T04:00:08;17.40;99.90
49579;DHT22;35483;50.828;3.228;2022-10-17T04:02:35;17.40;99.90
49579;DHT22;35483;50.828;3.228;2022-10-17T04:05:01;17.40;99.90
49579;DHT22;35483;50.828;3.228;2022-10-17T04:07:27;17.40;99.90
49579;DHT22;35483;50.828;3.228;2022-10-17T04:09:52;17.30;99.90
49579;DHT22;35483;50.828;3.228;2022-10-17T04:12:18;17.30;99.90
49579;DHT22;35483;50.828;3.228;2022-10-17T04:14:44;17.30;99.90
49579;DHT22;35483;50.828;3.228;2022-10-17T04:17:09;17.40;99.90
49579;DHT22;35483;50.828;3.228;2022-10-17T04:19:35;17.40;99.90
49579;DHT22;35483;50.828;3.228;2022-10-17T04:22:01;17.30;99.90
49579;DHT22;35483;50.828;3.228;2022-10-17T04:24:28;17.30;99.90
49579;DHT22;35483;50.828;3.228;2022-10-17T04:26:54;17.40;99.90
49579;DHT22;35483;50.828;3.228;2022-10-17T04:29:20;17.30;99.90
49579;DHT22;35483;50.828;3.228;2022-10-17T04:31:46;17.40;99.90
49579;DHT22;35483;50.828;3.228;2022-10-17T04:34:12;17.40;99.90
49579;DHT22;35483;50.828;3.228;2022-10-17T04:36:39;17.40;99.90
49579;DHT22;35483;50.828;3.228;2022-10-17T04:39:05;17.40;99.90
49579;DHT22;35483;50.828;3.228;2022-10-17T04:41:31;17.40;99.90
49579;DHT22;35483;50.828;3.228;2022-10-17T04:43:56;17.40;99.90
49579;DHT22;35483;50.828;3.228;2022-10-17T04:46:22;17.40;99.90
49579;DHT22;35483;50.828;3.228;2022-10-17T04:48:48;17.40;99.90
49579;DHT22;35483;50.828;3.228;2022-10-17T04:51:17;17.40;99.90
49579;DHT22;35483;50.828;3.228;2022-10-17T04:53:44;17.40;99.90
49579;DHT22;35483;50.828;3.228;2022-10-17T04:56:13;17.40;99.90
49579;DHT22;35483;50.828;3.228;2022-10-17T04:58:39;17.40;99.90
49579;DHT22;35483;50.828;3.228;2022-10-17T05:01:16;17.40;99.90
49579;DHT22;35483;50.828;3.228;2022-10-17T05:03:43;17.50;99.90
49579;DHT22;35483;50.828;3.228;2022-10-17T05:06:14;17.40;99.90
49579;DHT22;35483;50.828;3.228;2022-10-17T05:08:41;17.40;99.90
49579;DHT22;35483;50.828;3.228;2022-10-17T05:11:21;17.40;99.90
49579;DHT22;35483;50.828;3.228;2022-10-17T05:13:55;17.50;99.90
49579;DHT22;35483;50.828;3.228;2022-10-17T05:16:22;17.50;99.90
49579;DHT22;35483;50.828;3.228;2022-10-17T05:18:53;17.40;99.90
49579;DHT22;35483;50.828;3.228;2022-10-17T05:21:20;17.50;99.90
49579;DHT22;35483;50.828;3.228;2022-10-17T05:23:46;17.50;99.90
49579;DHT22;35483;50.828;3.228;2022-10-17T05:26:12;17.50;99.90
49579;DHT22;35483;50.828;3.228;2022-10-17T05:28:38;17.50;99.90
49579;DHT22;35483;50.828;3.228;2022-10-17T05:31:04;17.50;99.90
49579;DHT22;35483;50.828;3.228;2022-10-17T05:33:30;17.50;99.90
49579;DHT22;35483;50.828;3.228;2022-10-17T05:35:57;17.50;99.90
49579;DHT22;35483;50.828;3.228;2022-10-17T05:38:23;17.50;99.90
49579;DHT22;35483;50.828;3.228;2022-10-17T05:40:48;17.50;99.90
49579;DHT22;35483;50.828;3.228;2022-10-17T05:43:14;17.60;99.90
49579;DHT22;35483;50.828;3.228;2022-10-17T05:45:40;17.50;99.90
49579;DHT22;35483;50.828;3.228;2022-10-17T05:48:06;17.60;99.90
49579;DHT22;35483;50.828;3.228;2022-10-17T05:50:33;17.60;99.90
49579;DHT22;35483;50.828;3.228;2022-10-17T05:52:59;17.60;99.90
49579;DHT22;35483;50.828;3.228;2022-10-17T05:55:25;17.60;99.90
49579;DHT22;35483;50.828;3.228;2022-10-17T05:57:51;17.70;99.90
49579;DHT22;35483;50.828;3.228;2022-10-17T06:00:19;17.70;99.90
49579;DHT22;35483;50.828;3.228;2022-10-17T06:02:45;17.70;99.90
49579;DHT22;35483;50.828;3.228;2022-10-17T06:05:12;17.70;99.90
49579;DHT22;35483;50.828;3.228;2022-10-17T06:07:38;17.70;99.90
49579;DHT22;35483;50.828;3.228;2022-10-17T06:10:05;17.70;99.90
49579;DHT22;35483;50.828;3.228;2022-10-17T06:12:31;17.70;99.90
49579;DHT22;35483;50.828;3.228;2022-10-17T06:14:56;17.70;99.90
49579;DHT22;35483;50.828;3.228;2022-10-17T06:17:22;17.70;99.90
49579;DHT22;35483;50.828;3.228;2022-10-17T06:19:48;17.60;99.90
49579;DHT22;35483;50.828;3.228;2022-10-17T06:22:13;17.60;99.90
49579;DHT22;35483;50.828;3.228;2022-10-17T06:24:39;17.70;99.90
49579;DHT22;35483;50.828;3.228;2022-10-17T06:27:05;17.70;99.90
49579;DHT22;35483;50.828;3.228;2022-10-17T06:29:31;17.70;99.90
49579;DHT22;35483;50.828;3.228;2022-10-17T06:31:56;17.70;99.90
49579;DHT22;35483;50.828;3.228;2022-10-17T06:34:22;17.60;99.90
49579;DHT22;35483;50.828;3.228;2022-10-17T06:36:48;17.60;99.90
49579;DHT22;35483;50.828;3.228;2022-10-17T06:39:14;17.70;99.90
49579;DHT22;35483;50.828;3.228;2022-10-17T06:41:40;17.70;99.90
49579;DHT22;35483;50.828;3.228;2022-10-17T06:44:06;17.70;99.90
49579;DHT22;35483;50.828;3.228;2022-10-17T06:46:38;17.70;99.90
49579;DHT22;35483;50.828;3.228;2022-10-17T06:49:04;17.70;99.90
49579;DHT22;35483;50.828;3.228;2022-10-17T06:51:31;17.70;99.90
49579;DHT22;35483;50.828;3.228;2022-10-17T06:53:59;17.60;99.90
49579;DHT22;35483;50.828;3.228;2022-10-17T06:56:24;17.70;99.90
49579;DHT22;35483;50.828;3.228;2022-10-17T06:58:50;17.70;99.90
49579;DHT22;35483;50.828;3.228;2022-10-17T07:01:17;17.70;99.90
49579;DHT22;35483;50.828;3.228;2022-10-17T07:03:46;17.70;99.90
49579;DHT22;35483;50.828;3.228;2022-10-17T07:06:12;17.70;99.90
49579;DHT22;35483;50.828;3.228;2022-10-17T07:08:42;17.60;99.90
49579;DHT22;35483;50.828;3.228;2022-10-17T07:11:14;17.70;99.90
49579;DHT22;35483;50.828;3.228;2022-10-17T07:13:40;17.60;99.90
49579;DHT22;35483;50.828;3.228;2022-10-17T07:16:07;17.70;99.90
49579;DHT22;35483;50.828;3.228;2022-10-17T07:18:33;17.70;99.90
49579;DHT22;35483;50.828;3.228;2022-10-17T07:20:59;17.70;99.90
49579;DHT22;35483;50.828;3.228;2022-10-17T07:23:25;17.70;99.90
49579;DHT22;35483;50.828;3.228;2022-10-17T07:25:51;17.70;99.90
49579;DHT22;35483;50.828;3.228;2022-10-17T07:28:18;17.70;99.90
49579;DHT22;35483;50.828;3.228;2022-10-17T07:30:44;17.70;99.90
49579;DHT22;35483;50.828;3.228;2022-10-17T07:33:11;17.70;99.90
49579;DHT22;35483;50.828;3.228;2022-10-17T07:35:37;17.70;99.90
49579;DHT22;35483;50.828;3.228;2022-10-17T07:38:05;17.70;99.90
49579;DHT22;35483;50.828;3.228;2022-10-17T07:40:31;17.70;99.90
49579;DHT22;35483;50.828;3.228;2022-10-17T07:42:57;17.70;99.90
49579;DHT22;35483;50.828;3.228;2022-10-17T07:45:23;17.80;99.90
49579;DHT22;35483;50.828;3.228;2022-10-17T07:47:55;17.80;99.90
49579;DHT22;35483;50.828;3.228;2022-10-17T07:50:22;17.80;99.90
49579;DHT22;35483;50.828;3.228;2022-10-17T07:52:47;17.80;99.90
49579;DHT22;35483;50.828;3.228;2022-10-17T07:55:13;17.80;99.90
49579;DHT22;35483;50.828;3.228;2022-10-17T07:57:39;17.90;99.90
49579;DHT22;35483;50.828;3.228;2022-10-17T08:00:07;17.90;99.90
49579;DHT22;35483;50.828;3.228;2022-10-17T08:02:33;17.90;99.90
49579;DHT22;35483;50.828;3.228;2022-10-17T08:04:59;17.90;99.90
49579;DHT22;35483;50.828;3.228;2022-10-17T08:07:24;17.90;99.90
49579;DHT22;35483;50.828;3.228;2022-10-17T08:09:50;18.00;99.90
49579;DHT22;35483;50.828;3.228;2022-10-17T08:12:17;18.00;99.90
49579;DHT22;35483;50.828;3.228;2022-10-17T08:14:43;18.00;99.90
49579;DHT22;35483;50.828;3.228;2022-10-17T08:17:09;18.00;99.90
49579;DHT22;35483;50.828;3.228;2022-10-17T08:19:38;18.00;99.90
49579;DHT22;35483;50.828;3.228;2022-10-17T08:22:05;18.10;99.90
49579;DHT22;35483;50.828;3.228;2022-10-17T08:24:31;18.10;99.90
49579;DHT22;35483;50.828;3.228;2022-10-17T08:26:57;18.10;99.90
49579;DHT22;35483;50.828;3.228;2022-10-17T08:29:23;18.10;99.90
49579;DHT22;35483;50.828;3.228;2022-10-17T08:31:49;18.10;99.90
49579;DHT22;35483;50.828;3.228;2022-10-17T08:34:15;18.10;99.90
49579;DHT22;35483;50.828;3.228;2022-10-17T08:36:41;18.10;99.90
49579;DHT22;35483;50.828;3.228;2022-10-17T08:39:06;18.10;99.90
49579;DHT22;35483;50.828;3.228;2022-10-17T08:42:01;18.10;99.90
49579;DHT22;35483;50.828;3.228;2022-10-17T08:47:23;18.10;99.90
49579;DHT22;35483;50.828;3.228;2022-10-17T08:49:56;18.10;99.90
49579;DHT22;35483;50.828;3.228;2022-10-17T08:52:48;18.10;99.90
49579;DHT22;35483;50.828;3.228;2022-10-17T08:57:54;18.20;99.90
49579;DHT22;35483;50.828;3.228;2022-10-17T09:00:21;18.20;99.90
49579;DHT22;35483;50.828;3.228;2022-10-17T09:02:56;18.30;99.90
49579;DHT22;35483;50.828;3.228;2022-10-17T09:05:43;18.30;99.90
49579;DHT22;35483;50.828;3.228;2022-10-17T09:14:08;18.40;99.90
49579;DHT22;35483;50.828;3.228;2022-10-17T09:16:53;18.40;99.90
49579;DHT22;35483;50.828;3.228;2022-10-17T09:19:32;18.40;99.90
49579;DHT22;35483;50.828;3.228;2022-10-17T09:22:08;18.40;99.90
49579;DHT22;35483;50.828;3.228;2022-10-17T09:27:21;18.40;99.90
49579;DHT22;35483;50.828;3.228;2022-10-17T09:29:50;18.40;99.90
49579;DHT22;35483;50.828;3.228;2022-10-17T09:32:23;18.40;99.90
49579;DHT22;35483;50.828;3.228;2022-10-17T09:34:49;18.40;99.90
49579;DHT22;35483;50.828;3.228;2022-10-17T09:37:16;18.50;99.90
49579;DHT22;35483;50.828;3.228;2022-10-17T09:39:43;18.50;99.90
49579;DHT22;35483;50.828;3.228;2022-10-17T09:42:13;18.60;99.90
49579;DHT22;35483;50.828;3.228;2022-10-17T09:45:12;18.70;99.90
49579;DHT22;35483;50.828;3.228;2022-10-17T09:47:38;18.80;99.90
49579;DHT22;35483;50.828;3.228;2022-10-17T09:50:20;18.80;99.90
49579;DHT22;35483;50.828;3.228;2022-10-17T09:52:47;18.90;99.90
49579;DHT22;35483;50.828;3.228;2022-10-17T09:55:21;19.00;99.90
49579;DHT22;35483;50.828;3.228;2022-10-17T09:58:00;19.10;99.90
49579;DHT22;35483;50.828;3.228;2022-10-17T10:00:35;19.10;99.90
49579;DHT22;35483;50.828;3.228;2022-10-17T10:05:41;19.20;99.90
49579;DHT22;35483;50.828;3.228;2022-10-17T10:08:18;19.20;99.90
49579;DHT22;35483;50.828;3.228;2022-10-17T10:10:44;19.30;99.90
49579;DHT22;35483;50.828;3.228;2022-10-17T10:15:41;19.30;99.90
49579;DHT22;35483;50.828;3.228;2022-10-17T10:18:34;19.40;99.90
49579;DHT22;35483;50.828;3.228;2022-10-17T10:21:11;19.50;99.90
49579;DHT22;35483;50.828;3.228;2022-10-17T10:23:42;19.50;99.90
49579;DHT22;35483;50.828;3.228;2022-10-17T10:26:25;19.60;99.90
49579;DHT22;35483;50.828;3.228;2022-10-17T10:29:01;19.70;99.90
49579;DHT22;35483;50.828;3.228;2022-10-17T10:31:31;19.80;99.90
49579;DHT22;35483;50.828;3.228;2022-10-17T10:33:59;19.80;99.90
49579;DHT22;35483;50.828;3.228;2022-10-17T10:36:45;19.80;99.90
49579;DHT22;35483;50.828;3.228;2022-10-17T10:39:32;19.90;99.90
49579;DHT22;35483;50.828;3.228;2022-10-17T10:42:01;20.00;99.90
49579;DHT22;35483;50.828;3.228;2022-10-17T10:44:29;19.90;99.90
49579;DHT22;35483;50.828;3.228;2022-10-17T10:47:25;19.90;99.90
49579;DHT22;35483;50.828;3.228;2022-10-17T10:50:15;19.90;99.90
49579;DHT22;35483;50.828;3.228;2022-10-17T10:55:27;20.00;99.90
49579;DHT22;35483;50.828;3.228;2022-10-17T10:57:57;20.10;99.90
49579;DHT22;35483;50.828;3.228;2022-10-17T11:00:27;20.10;99.90
49579;DHT22;35483;50.828;3.228;2022-10-17T11:03:30;20.10;99.90
49579;DHT22;35483;50.828;3.228;2022-10-17T11:06:18;20.10;99.90
49579;DHT22;35483;50.828;3.228;2022-10-17T11:11:31;20.00;99.90
49579;DHT22;35483;50.828;3.228;2022-10-17T11:14:14;20.00;99.90
49579;DHT22;35483;50.828;3.228;2022-10-17T11:16:46;20.00;99.90
49579;DHT22;35483;50.828;3.228;2022-10-17T11:19:24;20.00;99.90
49579;DHT22;35483;50.828;3.228;2022-10-17T11:22:15;20.00;99.90
49579;DHT22;35483;50.828;3.228;2022-10-17T11:24:51;20.00;99.90
49579;DHT22;35483;50.828;3.228;2022-10-17T11:27:28;19.90;99.90
49579;DHT22;35483;50.828;3.228;2022-10-17T11:29:55;19.90;99.90
49579;DHT22;35483;50.828;3.228;2022-10-17T11:32:36;19.80;99.90
49579;DHT22;35483;50.828;3.228;2022-10-17T11:35:17;19.80;99.90
49579;DHT22;35483;50.828;3.228;2022-10-17T11:37:49;19.80;99.90
49579;DHT22;35483;50.828;3.228;2022-10-17T11:40:26;19.80;99.90
49579;DHT22;35483;50.828;3.228;2022-10-17T11:43:16;19.80;99.90
49579;DHT22;35483;50.828;3.228;2022-10-17T11:45:51;19.90;99.90
49579;DHT22;35483;50.828;3.228;2022-10-17T11:48:22;20.00;99.90
49579;DHT22;35483;50.828;3.228;2022-10-17T11:50:59;20.00;99.90
49579;DHT22;35483;50.828;3.228;2022-10-17T11:53:30;20.10;99.90
49579;DHT22;35483;50.828;3.228;2022-10-17T11:55:57;20.10;99.90
49579;DHT22;35483;50.828;3.228;2022-10-17T12:02:07;20.00;99.90
49579;DHT22;35483;50.828;3.228;2022-10-17T12:07:17;19.90;99.90
49579;DHT22;35483;50.828;3.228;2022-10-17T12:10:17;19.90;99.90
49579;DHT22;35483;50.828;3.228;2022-10-17T12:12:44;19.90;99.90
49579;DHT22;35483;50.828;3.228;2022-10-17T12:18:02;19.80;99.90
49579;DHT22;35483;50.828;3.228;2022-10-17T12:20:36;19.90;99.90
49579;DHT22;35483;50.828;3.228;2022-10-17T12:23:20;19.90;99.90
49579;DHT22;35483;50.828;3.228;2022-10-17T12:26:08;20.00;99.90
49579;DHT22;35483;50.828;3.228;2022-10-17T12:28:44;20.10;99.90
49579;DHT22;35483;50.828;3.228;2022-10-17T12:49:50;20.60;99.90
49579;DHT22;35483;50.828;3.228;2022-10-17T12:59:59;20.70;99.90
49579;DHT22;35483;50.828;3.228;2022-10-17T13:02:27;20.70;99.90
49579;DHT22;35483;50.828;3.228;2022-10-17T13:05:06;20.80;99.90
49579;DHT22;35483;50.828;3.228;2022-10-17T13:07:34;20.80;99.90
49579;DHT22;35483;50.828;3.228;2022-10-17T13:10:01;20.90;99.90
49579;DHT22;35483;50.828;3.228;2022-10-17T13:12:32;20.90;99.90
49579;DHT22;35483;50.828;3.228;2022-10-17T13:15:00;21.00;99.90
49579;DHT22;35483;50.828;3.228;2022-10-17T13:17:29;21.00;99.90
49579;DHT22;35483;50.828;3.228;2022-10-17T13:19:56;21.00;99.90
49579;DHT22;35483;50.828;3.228;2022-10-17T13:22:23;21.00;99.90
49579;DHT22;35483;50.828;3.228;2022-10-17T13:24:51;21.00;99.90
49579;DHT22;35483;50.828;3.228;2022-10-17T13:27:29;20.90;99.90
49579;DHT22;35483;50.828;3.228;2022-10-17T13:29:58;20.90;99.90
49579;DHT22;35483;50.828;3.228;2022-10-17T13:32:25;20.80;99.90
49579;DHT22;35483;50.828;3.228;2022-10-17T13:35:12;20.80;99.90
49579;DHT22;35483;50.828;3.228;2022-10-17T13:37:40;20.80;99.90
49579;DHT22;35483;50.828;3.228;2022-10-17T13:40:17;20.70;99.90
49579;DHT22;35483;50.828;3.228;2022-10-17T13:42:44;20.70;99.90
49579;DHT22;35483;50.828;3.228;2022-10-17T13:45:18;20.70;99.90
49579;DHT22;35483;50.828;3.228;2022-10-17T13:47:45;20.70;99.90
49579;DHT22;35483;50.828;3.228;2022-10-17T13:50:41;20.70;99.90
49579;DHT22;35483;50.828;3.228;2022-10-17T13:53:24;20.70;99.90
49579;DHT22;35483;50.828;3.228;2022-10-17T13:55:55;20.60;99.90
49579;DHT22;35483;50.828;3.228;2022-10-17T13:58:22;20.70;99.90
49579;DHT22;35483;50.828;3.228;2022-10-17T14:00:48;20.70;99.90
49579;DHT22;35483;50.828;3.228;2022-10-17T14:03:19;20.80;99.90
49579;DHT22;35483;50.828;3.228;2022-10-17T14:06:05;20.80;99.90
49579;DHT22;35483;50.828;3.228;2022-10-17T14:08:33;20.80;99.90
49579;DHT22;35483;50.828;3.228;2022-10-17T14:10:59;20.80;99.90
49579;DHT22;35483;50.828;3.228;2022-10-17T14:13:30;20.80;99.90
49579;DHT22;35483;50.828;3.228;2022-10-17T14:16:01;20.80;99.90
49579;DHT22;35483;50.828;3.228;2022-10-17T14:18:30;20.80;99.90
49579;DHT22;35483;50.828;3.228;2022-10-17T14:20:57;20.70;99.90
49579;DHT22;35483;50.828;3.228;2022-10-17T14:23:34;20.70;99.90
49579;DHT22;35483;50.828;3.228;2022-10-17T14:26:11;20.70;99.90
49579;DHT22;35483;50.828;3.228;2022-10-17T14:28:39;20.60;99.90
49579;DHT22;35483;50.828;3.228;2022-10-17T14:31:16;20.60;99.90
49579;DHT22;35483;50.828;3.228;2022-10-17T14:33:45;20.60;99.90
49579;DHT22;35483;50.828;3.228;2022-10-17T14:36:11;20.50;99.90
49579;DHT22;35483;50.828;3.228;2022-10-17T14:38:37;20.50;99.90
49579;DHT22;35483;50.828;3.228;2022-10-17T14:41:26;20.50;99.90
49579;DHT22;35483;50.828;3.228;2022-10-17T14:43:58;20.40;99.90
49579;DHT22;35483;50.828;3.228;2022-10-17T14:46:25;20.40;99.90
49579;DHT22;35483;50.828;3.228;2022-10-17T14:49:05;20.30;99.90
49579;DHT22;35483;50.828;3.228;2022-10-17T14:51:31;20.40;99.90
49579;DHT22;35483;50.828;3.228;2022-10-17T14:54:14;20.30;99.90
49579;DHT22;35483;50.828;3.228;2022-10-17T14:56:49;20.30;99.90
49579;DHT22;35483;50.828;3.228;2022-10-17T14:59:15;20.20;99.90
49579;DHT22;35483;50.828;3.228;2022-10-17T15:01:42;20.20;99.90
49579;DHT22;35483;50.828;3.228;2022-10-17T15:04:07;20.20;99.90
49579;DHT22;35483;50.828;3.228;2022-10-17T15:06:35;20.10;99.90
49579;DHT22;35483;50.828;3.228;2022-10-17T15:09:02;20.10;99.90
49579;DHT22;35483;50.828;3.228;2022-10-17T15:11:28;20.10;99.90
49579;DHT22;35483;50.828;3.228;2022-10-17T15:13:54;20.10;99.90
49579;DHT22;35483;50.828;3.228;2022-10-17T15:16:25;20.00;99.90
49579;DHT22;35483;50.828;3.228;2022-10-17T15:18:52;20.00;99.90
49579;DHT22;35483;50.828;3.228;2022-10-17T15:21:20;20.00;99.90
49579;DHT22;35483;50.828;3.228;2022-10-17T15:23:46;20.00;99.90
49579;DHT22;35483;50.828;3.228;2022-10-17T15:26:24;19.90;99.90
49579;DHT22;35483;50.828;3.228;2022-10-17T15:28:51;19.90;99.90
49579;DHT22;35483;50.828;3.228;2022-10-17T15:31:20;19.90;99.90
49579;DHT22;35483;50.828;3.228;2022-10-17T15:33:47;19.90;99.90
49579;DHT22;35483;50.828;3.228;2022-10-17T15:36:23;19.90;99.90
49579;DHT22;35483;50.828;3.228;2022-10-17T15:38:50;19.80;99.90
49579;DHT22;35483;50.828;3.228;2022-10-17T15:41:17;19.80;99.90
49579;DHT22;35483;50.828;3.228;2022-10-17T15:43:44;19.80;99.90
49579;DHT22;35483;50.828;3.228;2022-10-17T15:46:13;19.70;99.90
49579;DHT22;35483;50.828;3.228;2022-10-17T15:48:40;19.70;99.90
49579;DHT22;35483;50.828;3.228;2022-10-17T15:51:06;19.60;99.90
49579;DHT22;35483;50.828;3.228;2022-10-17T15:53:32;19.60;99.90
49579;DHT22;35483;50.828;3.228;2022-10-17T15:55:58;19.60;99.90
49579;DHT22;35483;50.828;3.228;2022-10-17T15:58:24;19.60;99.90
49579;DHT22;35483;50.828;3.228;2022-10-17T16:00:52;19.50;99.90
49579;DHT22;35483;50.828;3.228;2022-10-17T16:03:18;19.50;99.90
49579;DHT22;35483;50.828;3.228;2022-10-17T16:05:44;19.50;99.90
49579;DHT22;35483;50.828;3.228;2022-10-17T16:08:10;19.50;99.90
49579;DHT22;35483;50.828;3.228;2022-10-17T16:10:38;19.40;99.90
49579;DHT22;35483;50.828;3.228;2022-10-17T16:13:04;19.40;99.90
49579;DHT22;35483;50.828;3.228;2022-10-17T16:15:30;19.40;99.90
49579;DHT22;35483;50.828;3.228;2022-10-17T16:17:56;19.30;99.90
49579;DHT22;35483;50.828;3.228;2022-10-17T16:20:23;19.30;99.90
49579;DHT22;35483;50.828;3.228;2022-10-17T16:22:50;19.20;99.90
49579;DHT22;35483;50.828;3.228;2022-10-17T16:25:23;19.30;99.90
49579;DHT22;35483;50.828;3.228;2022-10-17T16:27:51;19.20;99.90
49579;DHT22;35483;50.828;3.228;2022-10-17T16:30:18;19.20;99.90
49579;DHT22;35483;50.828;3.228;2022-10-17T16:32:44;19.10;99.90
49579;DHT22;35483;50.828;3.228;2022-10-17T16:35:17;19.10;99.90
49579;DHT22;35483;50.828;3.228;2022-10-17T16:37:44;19.10;99.90
49579;DHT22;35483;50.828;3.228;2022-10-17T16:40:10;19.00;99.90
49579;DHT22;35483;50.828;3.228;2022-10-17T16:42:36;19.00;99.90
49579;DHT22;35483;50.828;3.228;2022-10-17T16:45:02;19.00;99.90
49579;DHT22;35483;50.828;3.228;2022-10-17T16:47:28;18.90;99.90
49579;DHT22;35483;50.828;3.228;2022-10-17T16:49:53;18.90;99.90
49579;DHT22;35483;50.828;3.228;2022-10-17T16:52:19;18.90;99.90
49579;DHT22;35483;50.828;3.228;2022-10-17T16:54:45;18.80;99.90
49579;DHT22;35483;50.828;3.228;2022-10-17T16:57:11;18.80;99.90
49579;DHT22;35483;50.828;3.228;2022-10-17T16:59:37;18.80;99.90
49579;DHT22;35483;50.828;3.228;2022-10-17T17:02:03;18.70;99.90
49579;DHT22;35483;50.828;3.228;2022-10-17T17:04:29;18.70;99.90
49579;DHT22;35483;50.828;3.228;2022-10-17T17:06:54;18.70;99.90
49579;DHT22;35483;50.828;3.228;2022-10-17T17:09:20;18.60;99.90
49579;DHT22;35483;50.828;3.228;2022-10-17T17:11:46;18.60;99.90
49579;DHT22;35483;50.828;3.228;2022-10-17T17:14:12;18.60;99.90
49579;DHT22;35483;50.828;3.228;2022-10-17T17:16:38;18.60;99.90
49579;DHT22;35483;50.828;3.228;2022-10-17T17:19:06;18.50;99.90